sensor_id;sensor_type;location;lat;lon;timestamp;P1;durP1;ratioP1;P2;durP2;ratioP2
69970;SDS011;57301;50.328;8.542;2022-12-18T00:02:00;31.73;;;12.70;;
69970;SDS011;57301;50.328;8.542;2022-12-18T00:04:31;39.53;;;14.38;;
69970;SDS011;57301;50.328;8.542;2022-12-18T00:06:57;38.35;;;15.68;;
69970;SDS011;57301;50.328;8.542;2022-12-18T00:09:27;42.88;;;15.88;;
69970;SDS011;57301;50.328;8.542;2022-12-18T00:12:05;38.60;;;14.37;;
69970;SDS011;57301;50.328;8.542;2022-12-18T00:14:41;34.47;;;14.82;;
69970;SDS011;57301;50.328;8.542;2022-12-18T00:17:11;35.97;;;15.23;;
69970;SDS011;57301;50.328;8.542;2022-12-18T00:19:37;33.83;;;14.95;;
69970;SDS011;57301;50.328;8.542;2022-12-18T00:22:04;34.63;;;14.55;;
69970;SDS011;57301;50.328;8.542;2022-12-18T00:24:53;34.70;;;13.10;;
69970;SDS011;57301;50.328;8.542;2022-12-18T00:27:20;37.08;;;14.75;;
69970;SDS011;57301;50.328;8.542;2022-12-18T00:29:49;29.20;;;13.10;;
69970;SDS011;57301;50.328;8.542;2022-12-18T00:32:18;28.45;;;11.32;;
69970;SDS011;57301;50.328;8.542;2022-12-18T00:34:44;31.10;;;12.45;;
69970;SDS011;57301;50.328;8.542;2022-12-18T00:37:11;25.33;;;11.30;;
69970;SDS011;57301;50.328;8.542;2022-12-18T00:39:44;25.75;;;11.77;;
69970;SDS011;57301;50.328;8.542;2022-12-18T00:42:13;26.10;;;10.32;;
69970;SDS011;57301;50.328;8.542;2022-12-18T00:44:58;23.10;;;10.07;;
69970;SDS011;57301;50.328;8.542;2022-12-18T00:47:36;24.90;;;10.68;;
69970;SDS011;57301;50.328;8.542;2022-12-18T00:50:05;21.43;;;10.37;;
69970;SDS011;57301;50.328;8.542;2022-12-18T00:52:32;22.70;;;9.85;;
69970;SDS011;57301;50.328;8.542;2022-12-18T00:54:59;23.20;;;11.20;;
69970;SDS011;57301;50.328;8.542;2022-12-18T00:57:31;27.55;;;11.68;;
69970;SDS011;57301;50.328;8.542;2022-12-18T00:59:57;31.60;;;12.13;;
69970;SDS011;57301;50.328;8.542;2022-12-18T01:02:24;25.33;;;10.20;;
69970;SDS011;57301;50.328;8.542;2022-12-18T01:04:51;27.10;;;13.70;;
69970;SDS011;57301;50.328;8.542;2022-12-18T01:07:18;34.42;;;14.40;;
69970;SDS011;57301;50.328;8.542;2022-12-18T01:09:44;27.35;;;12.25;;
69970;SDS011;57301;50.328;8.542;2022-12-18T01:12:10;28.27;;;11.52;;
69970;SDS011;57301;50.328;8.542;2022-12-18T01:14:37;28.10;;;11.80;;
69970;SDS011;57301;50.328;8.542;2022-12-18T01:17:04;19.42;;;8.32;;
69970;SDS011;57301;50.328;8.542;2022-12-18T01:19:31;27.50;;;12.48;;
69970;SDS011;57301;50.328;8.542;2022-12-18T01:21:57;34.38;;;13.75;;
69970;SDS011;57301;50.328;8.542;2022-12-18T01:24:25;25.83;;;12.63;;
69970;SDS011;57301;50.328;8.542;2022-12-18T01:26:51;28.17;;;11.20;;
69970;SDS011;57301;50.328;8.542;2022-12-18T01:29:18;30.50;;;11.45;;
69970;SDS011;57301;50.328;8.542;2022-12-18T01:31:44;29.27;;;11.80;;
69970;SDS011;57301;50.328;8.542;2022-12-18T01:34:11;31.15;;;12.40;;
69970;SDS011;57301;50.328;8.542;2022-12-18T01:36:38;30.75;;;11.90;;
69970;SDS011;57301;50.328;8.542;2022-12-18T01:39:06;25.30;;;10.47;;
69970;SDS011;57301;50.328;8.542;2022-12-18T01:41:36;29.48;;;11.07;;
69970;SDS011;57301;50.328;8.542;2022-12-18T01:48:09;29.90;;;13.45;;
69970;SDS011;57301;50.328;8.542;2022-12-18T01:50:22;31.23;;;12.98;;
69970;SDS011;57301;50.328;8.542;2022-12-18T01:52:52;30.80;;;13.00;;
69970;SDS011;57301;50.328;8.542;2022-12-18T01:55:22;30.98;;;12.45;;
69970;SDS011;57301;50.328;8.542;2022-12-18T01:57:55;27.40;;;12.43;;
69970;SDS011;57301;50.328;8.542;2022-12-18T02:00:25;29.00;;;11.88;;
69970;SDS011;57301;50.328;8.542;2022-12-18T02:02:52;27.23;;;11.52;;
69970;SDS011;57301;50.328;8.542;2022-12-18T02:08:33;26.15;;;11.13;;
69970;SDS011;57301;50.328;8.542;2022-12-18T02:11:23;26.30;;;11.27;;
69970;SDS011;57301;50.328;8.542;2022-12-18T02:16:43;23.02;;;9.68;;
69970;SDS011;57301;50.328;8.542;2022-12-18T02:22:24;20.95;;;9.13;;
69970;SDS011;57301;50.328;8.542;2022-12-18T02:25:26;25.27;;;9.55;;
69970;SDS011;57301;50.328;8.542;2022-12-18T02:28:15;25.42;;;10.55;;
69970;SDS011;57301;50.328;8.542;2022-12-18T02:30:47;23.40;;;9.07;;
69970;SDS011;57301;50.328;8.542;2022-12-18T02:33:15;22.67;;;8.90;;
69970;SDS011;57301;50.328;8.542;2022-12-18T02:35:45;23.73;;;9.38;;
69970;SDS011;57301;50.328;8.542;2022-12-18T02:38:13;22.23;;;9.95;;
69970;SDS011;57301;50.328;8.542;2022-12-18T02:40:42;21.15;;;8.85;;
69970;SDS011;57301;50.328;8.542;2022-12-18T02:43:11;16.90;;;7.80;;
69970;SDS011;57301;50.328;8.542;2022-12-18T02:45:46;24.07;;;8.67;;
69970;SDS011;57301;50.328;8.542;2022-12-18T02:48:13;17.75;;;7.88;;
69970;SDS011;57301;50.328;8.542;2022-12-18T02:50:51;17.80;;;7.45;;
69970;SDS011;57301;50.328;8.542;2022-12-18T02:56:16;14.27;;;7.90;;
69970;SDS011;57301;50.328;8.542;2022-12-18T03:01:33;16.95;;;7.95;;
69970;SDS011;57301;50.328;8.542;2022-12-18T03:04:08;18.25;;;6.78;;
69970;SDS011;57301;50.328;8.542;2022-12-18T03:06:41;18.80;;;7.63;;
69970;SDS011;57301;50.328;8.542;2022-12-18T03:09:14;17.80;;;8.02;;
69970;SDS011;57301;50.328;8.542;2022-12-18T03:11:46;15.90;;;7.33;;
69970;SDS011;57301;50.328;8.542;2022-12-18T03:15:00;19.13;;;8.35;;
69970;SDS011;57301;50.328;8.542;2022-12-18T03:17:41;18.38;;;7.85;;
69970;SDS011;57301;50.328;8.542;2022-12-18T03:20:13;16.65;;;7.63;;
69970;SDS011;57301;50.328;8.542;2022-12-18T03:22:44;22.55;;;8.57;;
69970;SDS011;57301;50.328;8.542;2022-12-18T03:25:16;18.27;;;8.40;;
69970;SDS011;57301;50.328;8.542;2022-12-18T03:27:46;15.88;;;6.97;;
69970;SDS011;57301;50.328;8.542;2022-12-18T03:30:15;23.15;;;10.25;;
69970;SDS011;57301;50.328;8.542;2022-12-18T03:32:53;22.80;;;10.15;;
69970;SDS011;57301;50.328;8.542;2022-12-18T03:35:30;21.35;;;9.05;;
69970;SDS011;57301;50.328;8.542;2022-12-18T03:38:00;21.50;;;8.10;;
69970;SDS011;57301;50.328;8.542;2022-12-18T03:40:30;20.50;;;8.90;;
69970;SDS011;57301;50.328;8.542;2022-12-18T03:43:28;15.50;;;8.43;;
69970;SDS011;57301;50.328;8.542;2022-12-18T03:46:42;20.58;;;8.82;;
69970;SDS011;57301;50.328;8.542;2022-12-18T03:48:52;21.17;;;8.13;;
69970;SDS011;57301;50.328;8.542;2022-12-18T03:51:36;20.80;;;8.10;;
69970;SDS011;57301;50.328;8.542;2022-12-18T03:54:23;18.35;;;8.60;;
69970;SDS011;57301;50.328;8.542;2022-12-18T03:56:56;25.08;;;9.77;;
69970;SDS011;57301;50.328;8.542;2022-12-18T03:59:25;18.20;;;8.18;;
69970;SDS011;57301;50.328;8.542;2022-12-18T04:01:54;20.60;;;8.27;;
69970;SDS011;57301;50.328;8.542;2022-12-18T04:04:24;19.43;;;7.83;;
69970;SDS011;57301;50.328;8.542;2022-12-18T04:06:53;18.67;;;7.68;;
69970;SDS011;57301;50.328;8.542;2022-12-18T04:09:21;14.98;;;6.80;;
69970;SDS011;57301;50.328;8.542;2022-12-18T04:11:48;17.67;;;7.22;;
69970;SDS011;57301;50.328;8.542;2022-12-18T04:14:14;22.85;;;8.10;;
69970;SDS011;57301;50.328;8.542;2022-12-18T04:16:43;21.10;;;7.47;;
69970;SDS011;57301;50.328;8.542;2022-12-18T04:19:10;19.65;;;8.63;;
69970;SDS011;57301;50.328;8.542;2022-12-18T04:21:36;23.05;;;8.77;;
69970;SDS011;57301;50.328;8.542;2022-12-18T04:24:03;20.25;;;8.15;;
69970;SDS011;57301;50.328;8.542;2022-12-18T04:26:29;18.35;;;7.25;;
69970;SDS011;57301;50.328;8.542;2022-12-18T04:28:56;15.37;;;7.03;;
69970;SDS011;57301;50.328;8.542;2022-12-18T04:31:22;17.17;;;7.40;;
69970;SDS011;57301;50.328;8.542;2022-12-18T04:33:49;17.85;;;7.60;;
69970;SDS011;57301;50.328;8.542;2022-12-18T04:36:15;20.13;;;7.38;;
69970;SDS011;57301;50.328;8.542;2022-12-18T04:38:42;20.90;;;8.00;;
69970;SDS011;57301;50.328;8.542;2022-12-18T04:41:08;14.80;;;6.53;;
69970;SDS011;57301;50.328;8.542;2022-12-18T04:43:35;15.70;;;6.82;;
69970;SDS011;57301;50.328;8.542;2022-12-18T04:46:05;21.80;;;7.55;;
69970;SDS011;57301;50.328;8.542;2022-12-18T04:48:33;15.50;;;7.53;;
69970;SDS011;57301;50.328;8.542;2022-12-18T04:51:00;17.75;;;7.13;;
69970;SDS011;57301;50.328;8.542;2022-12-18T04:53:27;20.60;;;6.93;;
69970;SDS011;57301;50.328;8.542;2022-12-18T04:56:03;14.50;;;7.07;;
69970;SDS011;57301;50.328;8.542;2022-12-18T04:58:30;19.80;;;7.78;;
69970;SDS011;57301;50.328;8.542;2022-12-18T05:00:57;16.40;;;7.20;;
69970;SDS011;57301;50.328;8.542;2022-12-18T05:03:23;16.33;;;6.43;;
69970;SDS011;57301;50.328;8.542;2022-12-18T05:05:50;19.13;;;7.10;;
69970;SDS011;57301;50.328;8.542;2022-12-18T05:08:17;17.00;;;7.35;;
69970;SDS011;57301;50.328;8.542;2022-12-18T05:10:45;15.73;;;6.45;;
69970;SDS011;57301;50.328;8.542;2022-12-18T05:13:11;15.52;;;7.47;;
69970;SDS011;57301;50.328;8.542;2022-12-18T05:15:37;19.33;;;6.80;;
69970;SDS011;57301;50.328;8.542;2022-12-18T05:18:04;14.90;;;6.23;;
69970;SDS011;57301;50.328;8.542;2022-12-18T05:20:31;13.27;;;6.82;;
69970;SDS011;57301;50.328;8.542;2022-12-18T05:22:57;15.23;;;6.50;;
69970;SDS011;57301;50.328;8.542;2022-12-18T05:25:24;16.38;;;7.10;;
69970;SDS011;57301;50.328;8.542;2022-12-18T05:27:51;15.35;;;6.63;;
69970;SDS011;57301;50.328;8.542;2022-12-18T05:30:17;16.57;;;7.03;;
69970;SDS011;57301;50.328;8.542;2022-12-18T05:32:43;17.05;;;6.80;;
69970;SDS011;57301;50.328;8.542;2022-12-18T05:35:10;14.55;;;6.88;;
69970;SDS011;57301;50.328;8.542;2022-12-18T05:37:37;15.70;;;6.82;;
69970;SDS011;57301;50.328;8.542;2022-12-18T05:40:08;13.73;;;7.03;;
69970;SDS011;57301;50.328;8.542;2022-12-18T05:42:36;17.83;;;6.93;;
69970;SDS011;57301;50.328;8.542;2022-12-18T05:45:02;14.90;;;6.00;;
69970;SDS011;57301;50.328;8.542;2022-12-18T05:47:29;14.32;;;6.55;;
69970;SDS011;57301;50.328;8.542;2022-12-18T05:49:56;17.92;;;6.43;;
69970;SDS011;57301;50.328;8.542;2022-12-18T05:52:23;16.25;;;7.10;;
69970;SDS011;57301;50.328;8.542;2022-12-18T05:54:49;13.30;;;5.83;;
69970;SDS011;57301;50.328;8.542;2022-12-18T05:57:16;18.40;;;7.65;;
69970;SDS011;57301;50.328;8.542;2022-12-18T05:59:42;19.65;;;7.30;;
69970;SDS011;57301;50.328;8.542;2022-12-18T06:02:09;18.40;;;6.95;;
69970;SDS011;57301;50.328;8.542;2022-12-18T06:04:35;15.45;;;6.38;;
69970;SDS011;57301;50.328;8.542;2022-12-18T06:07:02;13.03;;;6.53;;
69970;SDS011;57301;50.328;8.542;2022-12-18T06:09:29;14.77;;;6.07;;
69970;SDS011;57301;50.328;8.542;2022-12-18T06:11:55;15.98;;;6.60;;
69970;SDS011;57301;50.328;8.542;2022-12-18T06:14:22;15.40;;;7.22;;
69970;SDS011;57301;50.328;8.542;2022-12-18T06:16:49;20.23;;;7.35;;
69970;SDS011;57301;50.328;8.542;2022-12-18T06:19:17;14.80;;;6.30;;
69970;SDS011;57301;50.328;8.542;2022-12-18T06:21:44;15.75;;;6.93;;
69970;SDS011;57301;50.328;8.542;2022-12-18T06:24:10;16.13;;;7.80;;
69970;SDS011;57301;50.328;8.542;2022-12-18T06:26:37;18.63;;;7.28;;
69970;SDS011;57301;50.328;8.542;2022-12-18T06:29:05;19.77;;;7.45;;
69970;SDS011;57301;50.328;8.542;2022-12-18T06:31:32;19.37;;;7.63;;
69970;SDS011;57301;50.328;8.542;2022-12-18T06:33:59;17.50;;;6.72;;
69970;SDS011;57301;50.328;8.542;2022-12-18T06:36:28;18.70;;;8.25;;
69970;SDS011;57301;50.328;8.542;2022-12-18T06:38:54;19.15;;;7.82;;
69970;SDS011;57301;50.328;8.542;2022-12-18T06:41:22;24.55;;;9.18;;
69970;SDS011;57301;50.328;8.542;2022-12-18T06:43:49;21.80;;;9.40;;
69970;SDS011;57301;50.328;8.542;2022-12-18T06:46:15;26.75;;;13.15;;
69970;SDS011;57301;50.328;8.542;2022-12-18T06:48:42;20.02;;;9.25;;
69970;SDS011;57301;50.328;8.542;2022-12-18T06:51:09;21.63;;;8.68;;
69970;SDS011;57301;50.328;8.542;2022-12-18T06:53:35;17.40;;;7.80;;
69970;SDS011;57301;50.328;8.542;2022-12-18T06:56:04;20.63;;;7.90;;
69970;SDS011;57301;50.328;8.542;2022-12-18T06:58:36;20.52;;;8.25;;
69970;SDS011;57301;50.328;8.542;2022-12-18T07:01:04;19.98;;;7.80;;
69970;SDS011;57301;50.328;8.542;2022-12-18T07:03:31;23.05;;;7.13;;
69970;SDS011;57301;50.328;8.542;2022-12-18T07:05:58;16.73;;;7.70;;
69970;SDS011;57301;50.328;8.542;2022-12-18T07:08:25;20.87;;;8.23;;
69970;SDS011;57301;50.328;8.542;2022-12-18T07:10:51;16.88;;;7.57;;
69970;SDS011;57301;50.328;8.542;2022-12-18T07:13:21;17.63;;;8.15;;
69970;SDS011;57301;50.328;8.542;2022-12-18T07:15:48;20.08;;;8.68;;
69970;SDS011;57301;50.328;8.542;2022-12-18T07:18:15;15.27;;;7.82;;
69970;SDS011;57301;50.328;8.542;2022-12-18T07:20:42;16.93;;;7.40;;
69970;SDS011;57301;50.328;8.542;2022-12-18T07:23:08;27.90;;;11.05;;
69970;SDS011;57301;50.328;8.542;2022-12-18T07:25:35;20.08;;;9.00;;
69970;SDS011;57301;50.328;8.542;2022-12-18T07:28:03;22.67;;;8.88;;
69970;SDS011;57301;50.328;8.542;2022-12-18T07:30:30;20.52;;;8.90;;
69970;SDS011;57301;50.328;8.542;2022-12-18T07:32:57;22.37;;;8.80;;
69970;SDS011;57301;50.328;8.542;2022-12-18T07:35:23;26.17;;;10.48;;
69970;SDS011;57301;50.328;8.542;2022-12-18T07:37:50;21.15;;;9.77;;
69970;SDS011;57301;50.328;8.542;2022-12-18T07:40:17;18.38;;;8.23;;
69970;SDS011;57301;50.328;8.542;2022-12-18T07:42:43;22.90;;;10.25;;
69970;SDS011;57301;50.328;8.542;2022-12-18T07:45:10;28.87;;;13.50;;
69970;SDS011;57301;50.328;8.542;2022-12-18T07:47:36;29.20;;;11.85;;
69970;SDS011;57301;50.328;8.542;2022-12-18T07:50:03;30.40;;;13.00;;
69970;SDS011;57301;50.328;8.542;2022-12-18T07:52:30;31.83;;;12.55;;
69970;SDS011;57301;50.328;8.542;2022-12-18T07:54:58;28.05;;;10.85;;
69970;SDS011;57301;50.328;8.542;2022-12-18T07:57:24;24.80;;;10.30;;
69970;SDS011;57301;50.328;8.542;2022-12-18T08:00:11;42.00;;;15.88;;
69970;SDS011;57301;50.328;8.542;2022-12-18T08:02:38;24.85;;;10.77;;
69970;SDS011;57301;50.328;8.542;2022-12-18T08:05:05;24.45;;;10.68;;
69970;SDS011;57301;50.328;8.542;2022-12-18T08:07:32;24.15;;;9.60;;
69970;SDS011;57301;50.328;8.542;2022-12-18T08:09:58;27.97;;;11.37;;
69970;SDS011;57301;50.328;8.542;2022-12-18T08:12:25;25.35;;;11.02;;
69970;SDS011;57301;50.328;8.542;2022-12-18T08:14:51;23.98;;;11.35;;
69970;SDS011;57301;50.328;8.542;2022-12-18T08:17:19;74.70;;;28.65;;
69970;SDS011;57301;50.328;8.542;2022-12-18T08:19:46;23.63;;;11.50;;
69970;SDS011;57301;50.328;8.542;2022-12-18T08:22:12;25.53;;;12.23;;
69970;SDS011;57301;50.328;8.542;2022-12-18T08:24:39;24.88;;;11.35;;
69970;SDS011;57301;50.328;8.542;2022-12-18T08:27:05;23.45;;;10.98;;
69970;SDS011;57301;50.328;8.542;2022-12-18T08:29:51;23.75;;;10.50;;
69970;SDS011;57301;50.328;8.542;2022-12-18T08:32:18;60.67;;;23.65;;
69970;SDS011;57301;50.328;8.542;2022-12-18T08:34:44;23.23;;;10.70;;
69970;SDS011;57301;50.328;8.542;2022-12-18T08:37:11;30.02;;;13.93;;
69970;SDS011;57301;50.328;8.542;2022-12-18T08:39:37;28.23;;;13.82;;
69970;SDS011;57301;50.328;8.542;2022-12-18T08:42:04;29.38;;;11.98;;
69970;SDS011;57301;50.328;8.542;2022-12-18T08:44:49;40.33;;;20.30;;
69970;SDS011;57301;50.328;8.542;2022-12-18T08:47:15;31.93;;;15.97;;
69970;SDS011;57301;50.328;8.542;2022-12-18T08:49:42;22.52;;;11.48;;
69970;SDS011;57301;50.328;8.542;2022-12-18T08:52:08;23.17;;;12.10;;
69970;SDS011;57301;50.328;8.542;2022-12-18T08:54:37;22.70;;;12.38;;
69970;SDS011;57301;50.328;8.542;2022-12-18T08:57:04;19.90;;;9.93;;
69970;SDS011;57301;50.328;8.542;2022-12-18T08:59:30;23.33;;;11.13;;
69970;SDS011;57301;50.328;8.542;2022-12-18T09:01:59;27.52;;;12.10;;
69970;SDS011;57301;50.328;8.542;2022-12-18T09:04:29;25.95;;;12.57;;
69970;SDS011;57301;50.328;8.542;2022-12-18T09:06:55;22.30;;;12.82;;
69970;SDS011;57301;50.328;8.542;2022-12-18T09:09:22;24.90;;;12.55;;
69970;SDS011;57301;50.328;8.542;2022-12-18T09:11:48;20.43;;;11.40;;
69970;SDS011;57301;50.328;8.542;2022-12-18T09:14:15;19.77;;;11.70;;
69970;SDS011;57301;50.328;8.542;2022-12-18T09:16:44;22.33;;;11.32;;
69970;SDS011;57301;50.328;8.542;2022-12-18T09:19:14;22.60;;;12.02;;
69970;SDS011;57301;50.328;8.542;2022-12-18T09:21:41;21.02;;;12.93;;
69970;SDS011;57301;50.328;8.542;2022-12-18T09:24:13;21.67;;;10.93;;
69970;SDS011;57301;50.328;8.542;2022-12-18T09:26:47;24.58;;;12.55;;
69970;SDS011;57301;50.328;8.542;2022-12-18T09:29:17;23.83;;;11.70;;
69970;SDS011;57301;50.328;8.542;2022-12-18T09:31:44;24.02;;;11.68;;
69970;SDS011;57301;50.328;8.542;2022-12-18T09:34:12;26.30;;;13.27;;
69970;SDS011;57301;50.328;8.542;2022-12-18T09:36:38;24.43;;;12.50;;
69970;SDS011;57301;50.328;8.542;2022-12-18T09:39:05;23.88;;;11.88;;
69970;SDS011;57301;50.328;8.542;2022-12-18T09:47:11;20.95;;;11.25;;
69970;SDS011;57301;50.328;8.542;2022-12-18T09:50:27;21.47;;;11.40;;
69970;SDS011;57301;50.328;8.542;2022-12-18T09:52:56;21.15;;;11.05;;
69970;SDS011;57301;50.328;8.542;2022-12-18T09:55:28;23.50;;;11.45;;
69970;SDS011;57301;50.328;8.542;2022-12-18T10:00:41;19.83;;;11.55;;
69970;SDS011;57301;50.328;8.542;2022-12-18T10:03:14;23.60;;;12.63;;
69970;SDS011;57301;50.328;8.542;2022-12-18T10:05:45;23.17;;;11.50;;
69970;SDS011;57301;50.328;8.542;2022-12-18T10:08:44;23.02;;;11.77;;
69970;SDS011;57301;50.328;8.542;2022-12-18T10:17:45;22.63;;;12.10;;
69970;SDS011;57301;50.328;8.542;2022-12-18T10:20:33;22.77;;;10.38;;
69970;SDS011;57301;50.328;8.542;2022-12-18T10:25:49;25.73;;;13.10;;
69970;SDS011;57301;50.328;8.542;2022-12-18T10:28:21;22.70;;;11.35;;
69970;SDS011;57301;50.328;8.542;2022-12-18T10:30:48;31.20;;;14.87;;
69970;SDS011;57301;50.328;8.542;2022-12-18T10:33:27;26.05;;;13.60;;
69970;SDS011;57301;50.328;8.542;2022-12-18T10:35:55;21.35;;;10.95;;
69970;SDS011;57301;50.328;8.542;2022-12-18T10:38:26;21.02;;;10.95;;
69970;SDS011;57301;50.328;8.542;2022-12-18T10:43:24;26.37;;;14.40;;
69970;SDS011;57301;50.328;8.542;2022-12-18T10:46:01;29.20;;;14.00;;
69970;SDS011;57301;50.328;8.542;2022-12-18T10:48:56;24.98;;;12.13;;
69970;SDS011;57301;50.328;8.542;2022-12-18T10:51:28;34.03;;;14.43;;
69970;SDS011;57301;50.328;8.542;2022-12-18T10:54:04;25.17;;;11.70;;
69970;SDS011;57301;50.328;8.542;2022-12-18T10:56:39;27.80;;;12.13;;
69970;SDS011;57301;50.328;8.542;2022-12-18T10:59:10;30.75;;;15.48;;
69970;SDS011;57301;50.328;8.542;2022-12-18T11:01:51;24.38;;;11.40;;
69970;SDS011;57301;50.328;8.542;2022-12-18T11:04:22;30.95;;;14.25;;
69970;SDS011;57301;50.328;8.542;2022-12-18T11:06:57;32.38;;;15.40;;
69970;SDS011;57301;50.328;8.542;2022-12-18T11:09:27;25.00;;;12.90;;
69970;SDS011;57301;50.328;8.542;2022-12-18T11:12:05;34.30;;;15.32;;
69970;SDS011;57301;50.328;8.542;2022-12-18T11:17:22;38.50;;;16.98;;
69970;SDS011;57301;50.328;8.542;2022-12-18T11:19:56;30.63;;;14.88;;
69970;SDS011;57301;50.328;8.542;2022-12-18T11:24:59;26.17;;;13.63;;
69970;SDS011;57301;50.328;8.542;2022-12-18T11:27:53;33.05;;;15.13;;
69970;SDS011;57301;50.328;8.542;2022-12-18T11:30:29;34.90;;;16.98;;
69970;SDS011;57301;50.328;8.542;2022-12-18T11:33:19;37.42;;;18.23;;
69970;SDS011;57301;50.328;8.542;2022-12-18T11:35:55;32.20;;;15.27;;
69970;SDS011;57301;50.328;8.542;2022-12-18T11:38:29;35.20;;;16.40;;
69970;SDS011;57301;50.328;8.542;2022-12-18T11:44:25;38.85;;;17.13;;
69970;SDS011;57301;50.328;8.542;2022-12-18T11:46:59;42.67;;;19.38;;
69970;SDS011;57301;50.328;8.542;2022-12-18T11:49:35;43.33;;;18.47;;
69970;SDS011;57301;50.328;8.542;2022-12-18T11:54:35;44.47;;;20.23;;
69970;SDS011;57301;50.328;8.542;2022-12-18T11:57:24;44.28;;;19.83;;
69970;SDS011;57301;50.328;8.542;2022-12-18T12:00:16;43.75;;;20.17;;
69970;SDS011;57301;50.328;8.542;2022-12-18T12:09:02;40.78;;;19.10;;
69970;SDS011;57301;50.328;8.542;2022-12-18T12:12:39;46.88;;;19.33;;
69970;SDS011;57301;50.328;8.542;2022-12-18T12:14:54;44.25;;;19.10;;
69970;SDS011;57301;50.328;8.542;2022-12-18T12:17:35;48.83;;;20.10;;
69970;SDS011;57301;50.328;8.542;2022-12-18T12:20:10;47.90;;;19.45;;
69970;SDS011;57301;50.328;8.542;2022-12-18T12:23:02;52.95;;;20.05;;
69970;SDS011;57301;50.328;8.542;2022-12-18T12:28:15;41.00;;;18.25;;
69970;SDS011;57301;50.328;8.542;2022-12-18T12:31:11;50.07;;;20.53;;
69970;SDS011;57301;50.328;8.542;2022-12-18T12:33:53;46.25;;;18.88;;
69970;SDS011;57301;50.328;8.542;2022-12-18T12:36:48;48.60;;;18.50;;
69970;SDS011;57301;50.328;8.542;2022-12-18T12:39:21;46.03;;;19.23;;
69970;SDS011;57301;50.328;8.542;2022-12-18T12:41:54;161.30;;;60.45;;
69970;SDS011;57301;50.328;8.542;2022-12-18T12:44:44;70.80;;;26.27;;
69970;SDS011;57301;50.328;8.542;2022-12-18T12:50:01;43.78;;;17.20;;
69970;SDS011;57301;50.328;8.542;2022-12-18T12:52:34;44.78;;;17.90;;
69970;SDS011;57301;50.328;8.542;2022-12-18T12:55:07;53.50;;;22.42;;
69970;SDS011;57301;50.328;8.542;2022-12-18T12:57:48;48.87;;;18.90;;
69970;SDS011;57301;50.328;8.542;2022-12-18T13:00:23;55.13;;;19.35;;
69970;SDS011;57301;50.328;8.542;2022-12-18T13:05:40;49.22;;;19.60;;
69970;SDS011;57301;50.328;8.542;2022-12-18T13:08:10;52.40;;;21.48;;
69970;SDS011;57301;50.328;8.542;2022-12-18T13:10:39;54.73;;;20.33;;
69970;SDS011;57301;50.328;8.542;2022-12-18T13:13:08;49.78;;;20.33;;
69970;SDS011;57301;50.328;8.542;2022-12-18T13:15:41;57.40;;;20.33;;
69970;SDS011;57301;50.328;8.542;2022-12-18T13:18:12;50.55;;;20.13;;
69970;SDS011;57301;50.328;8.542;2022-12-18T13:31:00;56.63;;;22.40;;
69970;SDS011;57301;50.328;8.542;2022-12-18T13:44:56;56.40;;;21.15;;
69970;SDS011;57301;50.328;8.542;2022-12-18T13:47:41;40.67;;;16.13;;
69970;SDS011;57301;50.328;8.542;2022-12-18T13:50:21;49.43;;;20.20;;
69970;SDS011;57301;50.328;8.542;2022-12-18T13:52:57;52.92;;;19.75;;
69970;SDS011;57301;50.328;8.542;2022-12-18T13:55:24;51.13;;;19.42;;
69970;SDS011;57301;50.328;8.542;2022-12-18T13:57:51;55.83;;;19.98;;
69970;SDS011;57301;50.328;8.542;2022-12-18T14:00:30;52.40;;;18.98;;
69970;SDS011;57301;50.328;8.542;2022-12-18T14:02:58;53.57;;;19.77;;
69970;SDS011;57301;50.328;8.542;2022-12-18T14:08:11;54.72;;;20.63;;
69970;SDS011;57301;50.328;8.542;2022-12-18T14:10:41;50.40;;;20.02;;
69970;SDS011;57301;50.328;8.542;2022-12-18T14:13:17;55.95;;;19.80;;
69970;SDS011;57301;50.328;8.542;2022-12-18T14:15:49;48.47;;;17.03;;
69970;SDS011;57301;50.328;8.542;2022-12-18T14:18:21;48.63;;;18.90;;
69970;SDS011;57301;50.328;8.542;2022-12-18T14:20:53;54.05;;;20.25;;
69970;SDS011;57301;50.328;8.542;2022-12-18T14:25:52;61.20;;;26.42;;
69970;SDS011;57301;50.328;8.542;2022-12-18T14:28:18;51.50;;;19.57;;
69970;SDS011;57301;50.328;8.542;2022-12-18T14:30:45;55.95;;;20.77;;
69970;SDS011;57301;50.328;8.542;2022-12-18T14:33:13;44.53;;;15.38;;
69970;SDS011;57301;50.328;8.542;2022-12-18T14:36:04;49.17;;;18.65;;
69970;SDS011;57301;50.328;8.542;2022-12-18T14:38:34;47.30;;;17.27;;
69970;SDS011;57301;50.328;8.542;2022-12-18T14:43:32;46.55;;;17.90;;
69970;SDS011;57301;50.328;8.542;2022-12-18T14:46:00;45.85;;;16.33;;
69970;SDS011;57301;50.328;8.542;2022-12-18T14:48:33;53.15;;;20.10;;
69970;SDS011;57301;50.328;8.542;2022-12-18T14:51:02;50.70;;;18.70;;
69970;SDS011;57301;50.328;8.542;2022-12-18T14:53:41;40.33;;;16.93;;
69970;SDS011;57301;50.328;8.542;2022-12-18T14:58:56;49.28;;;18.05;;
69970;SDS011;57301;50.328;8.542;2022-12-18T15:01:26;45.00;;;19.15;;
69970;SDS011;57301;50.328;8.542;2022-12-18T15:04:00;43.63;;;16.95;;
69970;SDS011;57301;50.328;8.542;2022-12-18T15:06:37;47.47;;;17.03;;
69970;SDS011;57301;50.328;8.542;2022-12-18T15:09:20;44.90;;;16.73;;
69970;SDS011;57301;50.328;8.542;2022-12-18T15:11:49;35.50;;;13.55;;
69970;SDS011;57301;50.328;8.542;2022-12-18T15:14:33;49.33;;;16.95;;
69970;SDS011;57301;50.328;8.542;2022-12-18T15:17:17;46.75;;;17.92;;
69970;SDS011;57301;50.328;8.542;2022-12-18T15:19:53;47.57;;;18.50;;
69970;SDS011;57301;50.328;8.542;2022-12-18T15:24:54;48.53;;;18.95;;
69970;SDS011;57301;50.328;8.542;2022-12-18T15:27:29;46.95;;;18.95;;
69970;SDS011;57301;50.328;8.542;2022-12-18T15:32:34;56.57;;;20.13;;
69970;SDS011;57301;50.328;8.542;2022-12-18T15:37:37;41.22;;;15.77;;
69970;SDS011;57301;50.328;8.542;2022-12-18T15:40:05;41.00;;;15.82;;
69970;SDS011;57301;50.328;8.542;2022-12-18T15:42:32;58.83;;;22.38;;
69970;SDS011;57301;50.328;8.542;2022-12-18T15:45:16;43.33;;;16.50;;
69970;SDS011;57301;50.328;8.542;2022-12-18T15:47:44;46.92;;;16.45;;
69970;SDS011;57301;50.328;8.542;2022-12-18T15:50:10;56.55;;;21.10;;
69970;SDS011;57301;50.328;8.542;2022-12-18T15:52:41;53.05;;;22.45;;
69970;SDS011;57301;50.328;8.542;2022-12-18T15:55:11;53.67;;;20.92;;
69970;SDS011;57301;50.328;8.542;2022-12-18T15:57:57;56.50;;;21.93;;
69970;SDS011;57301;50.328;8.542;2022-12-18T16:00:24;50.33;;;19.85;;
69970;SDS011;57301;50.328;8.542;2022-12-18T16:02:50;49.55;;;19.33;;
69970;SDS011;57301;50.328;8.542;2022-12-18T16:05:18;52.10;;;19.02;;
69970;SDS011;57301;50.328;8.542;2022-12-18T16:07:46;46.35;;;18.35;;
69970;SDS011;57301;50.328;8.542;2022-12-18T16:10:13;51.40;;;19.17;;
69970;SDS011;57301;50.328;8.542;2022-12-18T16:12:40;41.42;;;15.68;;
69970;SDS011;57301;50.328;8.542;2022-12-18T16:15:07;44.55;;;17.25;;
69970;SDS011;57301;50.328;8.542;2022-12-18T16:17:37;36.67;;;15.00;;
69970;SDS011;57301;50.328;8.542;2022-12-18T16:20:04;49.85;;;18.10;;
69970;SDS011;57301;50.328;8.542;2022-12-18T16:22:31;46.60;;;18.60;;
69970;SDS011;57301;50.328;8.542;2022-12-18T16:24:57;48.72;;;17.00;;
69970;SDS011;57301;50.328;8.542;2022-12-18T16:27:24;48.15;;;18.25;;
69970;SDS011;57301;50.328;8.542;2022-12-18T16:29:51;45.13;;;18.45;;
69970;SDS011;57301;50.328;8.542;2022-12-18T16:32:18;44.33;;;17.20;;
69970;SDS011;57301;50.328;8.542;2022-12-18T16:34:46;46.40;;;17.63;;